Estación Meteorológica Peña el Pijo (Robertgarden) [ 06/14/24 09:10:29 CEST ]

Fecha Hora Presion(HPa) Temp (°C) Humedad % Rocio (°C) Viento ( m/s) Direccion Lluvia 1Hora(mm) Lluvia 24H(mm) LLuvia Total(mm)
2013-Dec-09 01:01:12 1017.400 -3.5 81 -6.3         231.54
2013-Dec-09 02:01:47 1017.100 -4.1 82 -6.5         231.54
2013-Dec-09 03:10:05 1017.500 -4.5 83 -7.0         231.54
2013-Dec-09 04:06:10 1017.600 -5.1 84 -7.4         231.54
2013-Dec-09 05:01:11 1017.500 -4.8 85 -7.0         231.54
2013-Dec-09 06:01:11 1017.200 -4.8 85 -7.0         231.54
2013-Dec-09 07:01:16 1017.500 -4.9 85 -7.0         231.54
2013-Dec-09 08:01:15 1017.800 -5.2 85 -7.3         231.54
2013-Dec-09 09:01:21 1018.200 -5.2 85 -7.3         231.54
2013-Dec-09 10:01:11 1018.400 -0.3 83 -2.8         231.54
2013-Dec-09 11:01:16 1018.800 5.8 63 -0.7         231.54
2013-Dec-09 12:01:18 1018.200 9.0 52 -0.4         231.54
2013-Dec-09 13:01:13 1017.800 10.5 47 -0.4         231.54
2013-Dec-09 14:01:13 1017.100 10.2 50 0.3         231.54
2013-Dec-09 15:01:13 1016.900 11.2 49 0.9         231.54
2013-Dec-09 16:01:14 1017.000 10.6 51 0.9         231.54
2013-Dec-09 17:01:15 1017.000 8.5 57 0.4         231.54
2013-Dec-09 18:01:16 1017.500 6.1 63 -0.5         231.54
2013-Dec-09 19:01:21 1018.100 2.4 70 -2.5         231.54
2013-Dec-09 20:01:12 1018.600 -0.1 76 -3.8         231.54
2013-Dec-09 21:01:12 1019.100 -0.4 80 -3.4         231.54
2013-Dec-09 22:01:18 1019.100 -1.0 82 -3.6         231.54
2013-Dec-09 23:01:13 1019.600 -1.5 84 -3.9         231.54

Temperatura Máxima:11°    Temperatura Mínima:-5°
Presión Máxima:1019.600 Hpa    Presión Mínima:1016.900 Hpa


Volver